createdAt,value
2019-05-17T00:00:24.382Z,7.75
2019-05-17T00:01:26.881Z,7.80
2019-05-17T00:02:26.416Z,7.72
2019-05-17T00:03:24.329Z,7.76
2019-05-17T00:04:24.321Z,7.76
2019-05-17T00:05:26.358Z,7.73
2019-05-17T00:06:24.314Z,7.60
2019-05-17T00:07:24.297Z,7.79
2019-05-17T00:08:31.956Z,7.70
2019-05-17T00:09:26.755Z,7.69
2019-05-17T00:10:26.375Z,7.70
2019-05-17T00:11:24.241Z,7.67
2019-05-17T00:12:24.247Z,7.73
2019-05-17T00:13:26.714Z,7.67
2019-05-17T00:14:24.209Z,7.63
2019-05-17T00:15:24.198Z,7.70
2019-05-17T00:16:24.185Z,7.69
2019-05-17T00:17:26.608Z,7.72
2019-05-17T00:18:26.327Z,7.70
2019-05-17T00:19:26.181Z,7.73
2019-05-17T00:20:26.466Z,7.75
2019-05-17T00:21:24.139Z,7.79
2019-05-17T00:22:24.119Z,7.75
2019-05-17T00:23:24.119Z,7.66
2019-05-17T00:24:26.360Z,7.70
2019-05-17T00:25:24.089Z,7.67
2019-05-17T00:26:24.075Z,7.67
2019-05-17T00:27:26.363Z,7.77
2019-05-17T00:28:24.056Z,7.73
2019-05-17T00:29:26.322Z,7.72
2019-05-17T00:30:26.383Z,7.69
2019-05-17T00:31:26.173Z,7.66
2019-05-17T00:32:24.012Z,7.75
2019-05-17T00:33:24.001Z,7.72
2019-05-17T00:34:23.989Z,7.75
2019-05-17T00:35:23.978Z,7.67
2019-05-17T00:36:23.987Z,7.70
2019-05-17T00:37:26.322Z,7.69
2019-05-17T00:38:23.950Z,7.76
2019-05-17T00:39:23.943Z,7.76
2019-05-17T00:40:23.926Z,7.69
2019-05-17T00:41:23.912Z,7.66
2019-05-17T00:42:26.276Z,7.75
2019-05-17T00:43:26.117Z,7.63
2019-05-17T00:44:23.879Z,7.69
2019-05-17T00:45:23.871Z,7.63
2019-05-17T00:46:23.861Z,7.60
2019-05-17T00:47:23.857Z,7.60
2019-05-17T00:48:23.864Z,7.73
2019-05-17T00:49:23.830Z,7.66
2019-05-17T00:50:23.815Z,7.70
2019-05-17T00:51:23.808Z,7.66
2019-05-17T00:52:23.797Z,7.57
2019-05-17T00:53:23.787Z,7.67
2019-05-17T00:54:23.793Z,7.69
2019-05-17T00:55:23.774Z,7.70
2019-05-17T00:56:23.766Z,7.56
2019-05-17T00:57:23.740Z,7.58
2019-05-17T00:58:23.728Z,7.56
2019-05-17T00:59:23.725Z,7.56
2019-05-17T01:00:23.730Z,7.69
2019-05-17T01:01:23.709Z,7.61
2019-05-17T01:02:23.699Z,7.63
2019-05-17T01:03:23.679Z,7.63
2019-05-17T01:04:23.664Z,7.63
2019-05-17T01:05:23.654Z,7.57
2019-05-17T01:06:23.664Z,7.56
2019-05-17T01:07:23.632Z,7.54
2019-05-17T01:08:23.639Z,7.56
2019-05-17T01:09:23.614Z,7.61
2019-05-17T01:10:23.598Z,7.63
2019-05-17T01:11:23.587Z,7.61
2019-05-17T01:12:23.593Z,7.57
2019-05-17T01:13:23.564Z,7.60
2019-05-17T01:14:23.561Z,7.56
2019-05-17T01:15:23.543Z,7.66
2019-05-17T01:16:23.535Z,7.57
2019-05-17T01:17:23.526Z,7.56
2019-05-17T01:18:23.528Z,7.58
2019-05-17T01:19:23.501Z,7.58
2019-05-17T01:20:23.510Z,7.54
2019-05-17T01:21:23.476Z,7.61
2019-05-17T01:22:23.468Z,7.57
2019-05-17T01:23:23.454Z,7.57
2019-05-17T01:24:23.466Z,7.57
2019-05-17T01:25:23.451Z,7.61
2019-05-17T01:26:23.424Z,7.58
2019-05-17T01:27:23.412Z,7.63
2019-05-17T01:28:23.399Z,7.57
2019-05-17T01:29:23.392Z,7.57
2019-05-17T01:30:23.402Z,7.57
2019-05-17T01:31:23.367Z,7.47
2019-05-17T01:32:23.359Z,7.60
2019-05-17T01:33:23.371Z,7.54
2019-05-17T01:34:23.342Z,7.63
2019-05-17T01:35:23.326Z,7.63
2019-05-17T01:36:23.342Z,7.53
2019-05-17T01:37:23.304Z,7.58
2019-05-17T01:38:23.315Z,7.53
2019-05-17T01:39:23.283Z,7.53
2019-05-17T01:40:23.275Z,7.56
2019-05-17T01:41:23.263Z,7.63
2019-05-17T01:42:23.275Z,7.56
2019-05-17T01:43:23.241Z,7.56
2019-05-17T01:44:23.255Z,7.54
2019-05-17T01:45:23.217Z,7.57
2019-05-17T01:46:23.209Z,7.53
2019-05-17T01:47:23.200Z,7.54
2019-05-17T01:48:23.208Z,7.57
2019-05-17T01:49:23.182Z,7.54
2019-05-17T01:50:23.166Z,7.57
2019-05-17T01:51:23.156Z,7.60
2019-05-17T01:52:23.149Z,7.58
2019-05-17T01:53:23.133Z,7.57
2019-05-17T01:54:23.141Z,7.54
2019-05-17T01:55:23.109Z,7.50
2019-05-17T01:56:23.102Z,7.56
2019-05-17T01:57:23.093Z,7.56
2019-05-17T01:58:23.079Z,7.54
2019-05-17T01:59:23.069Z,7.53
2019-05-17T02:00:23.077Z,7.56
2019-05-17T02:01:23.058Z,7.56
2019-05-17T02:02:23.038Z,7.56
2019-05-17T02:03:23.024Z,7.53
2019-05-17T02:04:23.018Z,7.56
2019-05-17T02:05:23.003Z,7.53
2019-05-17T02:06:23.009Z,7.54
2019-05-17T02:07:22.993Z,7.53
2019-05-17T02:08:22.978Z,7.45
2019-05-17T02:09:34.852Z,7.50
2019-05-17T02:10:23.948Z,7.50
2019-05-17T02:11:22.945Z,7.56
2019-05-17T02:12:22.948Z,7.53
2019-05-17T02:13:22.917Z,7.51
2019-05-17T02:14:22.906Z,7.53
2019-05-17T02:15:22.909Z,7.54
2019-05-17T02:16:22.896Z,7.53
2019-05-17T02:17:22.880Z,7.50
2019-05-17T02:18:22.888Z,7.40
2019-05-17T02:19:22.852Z,7.50
2019-05-17T02:20:22.845Z,7.45
2019-05-17T02:21:22.830Z,7.45
2019-05-17T02:22:22.830Z,7.45
2019-05-17T02:23:22.810Z,7.39
2019-05-17T02:24:22.820Z,7.42
2019-05-17T02:25:22.788Z,7.51
2019-05-17T02:26:22.783Z,7.43
2019-05-17T02:27:25.349Z,7.42
2019-05-17T02:28:23.757Z,7.39
2019-05-17T02:29:22.745Z,7.45
2019-05-17T02:30:23.511Z,7.40
2019-05-17T02:31:24.755Z,7.47
2019-05-17T02:32:23.457Z,7.42
2019-05-17T02:33:23.583Z,7.45
2019-05-17T02:34:23.349Z,7.47
2019-05-17T02:35:23.260Z,7.42
2019-05-17T02:36:23.016Z,7.40
2019-05-17T02:37:23.237Z,7.39
2019-05-17T02:38:22.673Z,7.40
2019-05-17T02:39:23.314Z,7.39
2019-05-17T02:40:22.823Z,7.40
2019-05-17T02:41:22.820Z,7.39
2019-05-17T02:42:22.630Z,7.45
2019-05-17T02:43:23.561Z,7.39
2019-05-17T02:44:23.522Z,7.43
2019-05-17T02:45:23.401Z,7.42
2019-05-17T02:46:23.167Z,7.40
2019-05-17T02:47:23.144Z,7.43
2019-05-17T02:48:23.389Z,7.40
2019-05-17T02:49:23.575Z,7.38
2019-05-17T02:50:23.324Z,7.45
2019-05-17T02:51:23.704Z,7.39
2019-05-17T02:52:23.108Z,7.40
2019-05-17T02:53:23.140Z,7.42
2019-05-17T02:54:23.527Z,7.38
2019-05-17T02:55:23.260Z,7.42
2019-05-17T02:56:23.213Z,7.40
2019-05-17T02:57:23.319Z,7.39
2019-05-17T02:58:23.278Z,7.47
2019-05-17T02:59:23.227Z,7.42
2019-05-17T03:00:23.871Z,7.45
2019-05-17T03:01:23.140Z,7.51
2019-05-17T03:02:27.546Z,7.48
2019-05-17T03:03:23.851Z,7.43
2019-05-17T03:04:23.583Z,7.36
2019-05-17T03:05:23.247Z,7.47
2019-05-17T03:06:22.865Z,7.47
2019-05-17T03:07:23.172Z,7.45
2019-05-17T03:08:23.534Z,7.50
2019-05-17T03:09:22.995Z,7.47
2019-05-17T03:10:28.479Z,7.50
2019-05-17T03:11:23.313Z,7.45
2019-05-17T03:12:23.674Z,7.47
2019-05-17T03:13:23.472Z,7.45
2019-05-17T03:14:22.926Z,7.47
2019-05-17T03:15:23.446Z,7.51
2019-05-17T03:16:23.670Z,7.45
2019-05-17T03:17:22.916Z,7.42
2019-05-17T03:18:23.058Z,7.48
2019-05-17T03:19:23.520Z,7.42
2019-05-17T03:20:23.229Z,7.51
2019-05-17T03:21:22.929Z,7.47
2019-05-17T03:22:23.176Z,7.50
2019-05-17T03:23:23.372Z,7.43
2019-05-17T03:24:22.726Z,7.50
2019-05-17T03:25:23.895Z,7.57
2019-05-17T03:26:23.066Z,7.48
2019-05-17T03:27:23.281Z,7.54
2019-05-17T03:28:23.535Z,7.50
2019-05-17T03:29:22.894Z,7.58
2019-05-17T03:30:25.788Z,7.56
2019-05-17T03:31:26.195Z,7.53
2019-05-17T03:32:26.668Z,7.56
2019-05-17T03:33:26.454Z,7.56
2019-05-17T03:34:26.663Z,7.57
2019-05-17T03:35:26.642Z,7.61
2019-05-17T03:36:26.196Z,7.58
2019-05-17T03:37:30.251Z,7.56
2019-05-17T03:38:22.988Z,7.53
2019-05-17T03:39:22.669Z,7.58
2019-05-17T03:40:46.965Z,7.63
2019-05-17T03:41:24.848Z,7.57
2019-05-17T03:42:22.948Z,7.63
2019-05-17T03:43:22.586Z,7.47
2019-05-17T03:44:22.543Z,7.53
2019-05-17T03:45:22.854Z,7.53
2019-05-17T03:46:23.181Z,7.58
2019-05-17T03:47:22.686Z,7.57
2019-05-17T03:48:22.253Z,7.60
2019-05-17T03:49:22.430Z,7.57
2019-05-17T03:50:22.676Z,7.58
2019-05-17T03:51:23.358Z,7.67
2019-05-17T03:52:22.431Z,7.57
2019-05-17T03:53:22.819Z,7.66
2019-05-17T03:54:22.615Z,7.58
2019-05-17T03:55:23.484Z,7.61
2019-05-17T03:56:22.450Z,7.58
2019-05-17T03:57:23.910Z,7.60
2019-05-17T03:58:23.523Z,7.58
2019-05-17T03:59:24.200Z,7.61
2019-05-17T04:00:23.265Z,7.56
2019-05-17T04:01:23.159Z,7.53
2019-05-17T04:02:23.100Z,7.54
2019-05-17T04:03:22.851Z,7.58
2019-05-17T04:04:22.880Z,7.58
2019-05-17T04:05:22.700Z,7.61
2019-05-17T04:06:23.897Z,7.57
2019-05-17T04:07:23.566Z,7.57
2019-05-17T04:08:23.010Z,7.58
2019-05-17T04:09:22.354Z,7.69
2019-05-17T04:10:22.877Z,7.58
2019-05-17T04:11:31.099Z,7.57
2019-05-17T04:12:23.302Z,7.53
2019-05-17T04:13:23.399Z,7.63
2019-05-17T04:14:22.553Z,7.60
2019-05-17T04:15:23.926Z,7.60
2019-05-17T04:16:23.777Z,7.58
2019-05-17T04:17:22.773Z,7.66
2019-05-17T04:18:23.517Z,7.66
2019-05-17T04:19:22.962Z,7.66
2019-05-17T04:20:22.357Z,7.70
2019-05-17T04:21:23.481Z,7.60
2019-05-17T04:22:23.914Z,7.72
2019-05-17T04:23:23.205Z,7.76
2019-05-17T04:24:23.047Z,7.76
2019-05-17T04:25:23.417Z,7.69
2019-05-17T04:26:22.955Z,7.60
2019-05-17T04:27:22.903Z,7.72
2019-05-17T04:28:22.927Z,7.70
2019-05-17T04:29:22.658Z,7.69
2019-05-17T04:30:23.386Z,7.77
2019-05-17T04:31:22.745Z,7.80
2019-05-17T04:32:23.304Z,7.76
2019-05-17T04:33:23.301Z,7.77
2019-05-17T04:34:22.449Z,7.76
2019-05-17T04:35:23.294Z,7.79
2019-05-17T04:36:22.447Z,7.77
2019-05-17T04:37:22.823Z,7.66
2019-05-17T04:38:23.606Z,7.75
2019-05-17T04:39:22.644Z,7.72
2019-05-17T04:40:23.169Z,7.77
2019-05-17T04:41:39.418Z,7.79
2019-05-17T04:42:22.808Z,7.70
2019-05-17T04:43:23.046Z,7.76
2019-05-17T04:44:23.145Z,7.69
2019-05-17T04:45:23.036Z,7.79
2019-05-17T04:46:23.623Z,7.83
2019-05-17T04:47:22.994Z,7.76
2019-05-17T04:48:23.280Z,7.79
2019-05-17T04:49:24.273Z,7.80
2019-05-17T04:50:23.122Z,7.80
2019-05-17T04:51:23.231Z,7.85
2019-05-17T04:52:22.738Z,7.79
2019-05-17T04:53:23.367Z,7.75
2019-05-17T04:54:22.707Z,7.83
2019-05-17T04:55:23.062Z,7.80
2019-05-17T04:56:22.770Z,7.88
2019-05-17T04:57:23.150Z,7.87
2019-05-17T04:58:23.257Z,7.93
2019-05-17T04:59:24.012Z,7.88
2019-05-17T05:00:21.952Z,7.85
2019-05-17T05:01:23.537Z,7.88
2019-05-17T05:02:23.584Z,7.94
2019-05-17T05:03:23.039Z,7.90
2019-05-17T05:04:22.582Z,7.88
2019-05-17T05:05:22.767Z,8.00
2019-05-17T05:06:23.290Z,8.00
2019-05-17T05:07:22.633Z,7.91
2019-05-17T05:08:22.430Z,7.90
2019-05-17T05:09:23.120Z,7.91
2019-05-17T05:10:22.509Z,8.01
2019-05-17T05:11:23.378Z,7.97
2019-05-17T05:12:22.846Z,7.93
2019-05-17T05:13:22.700Z,7.98
2019-05-17T05:14:23.313Z,7.90
2019-05-17T05:15:22.567Z,7.95
2019-05-17T05:16:22.542Z,7.91
2019-05-17T05:17:22.190Z,7.98
2019-05-17T05:18:22.159Z,8.01
2019-05-17T05:19:22.350Z,7.98
2019-05-17T05:20:22.106Z,8.05
2019-05-17T05:21:23.038Z,8.01
2019-05-17T05:22:22.470Z,7.98
2019-05-17T05:23:23.770Z,7.97
2019-05-17T05:24:22.244Z,7.97
2019-05-17T05:25:21.645Z,8.00
2019-05-17T05:26:22.279Z,8.00
2019-05-17T05:27:22.252Z,8.00
2019-05-17T05:28:22.537Z,8.01
2019-05-17T05:29:21.672Z,7.97
2019-05-17T05:30:22.548Z,7.97
2019-05-17T05:31:22.785Z,7.95
2019-05-17T05:32:22.056Z,7.97
2019-05-17T05:33:22.178Z,8.00
2019-05-17T05:34:21.617Z,8.08
2019-05-17T05:35:22.433Z,7.97
2019-05-17T05:36:22.097Z,7.97
2019-05-17T05:37:23.133Z,8.08
2019-05-17T05:38:21.648Z,8.00
2019-05-17T05:39:22.708Z,8.05
2019-05-17T05:40:21.390Z,8.08
2019-05-17T05:41:22.554Z,8.13
2019-05-17T05:42:22.103Z,8.18
2019-05-17T05:43:22.645Z,8.13
2019-05-17T05:44:21.536Z,8.13
2019-05-17T05:45:22.506Z,8.09
2019-05-17T05:46:22.376Z,8.12
2019-05-17T05:47:22.175Z,8.15
2019-05-17T05:48:21.754Z,8.10
2019-05-17T05:49:21.694Z,8.16
2019-05-17T05:50:21.806Z,8.16
2019-05-17T05:51:21.641Z,8.15
2019-05-17T05:52:21.843Z,8.15
2019-05-17T05:53:21.824Z,8.23
2019-05-17T05:54:22.480Z,8.24
2019-05-17T05:55:23.181Z,8.30
2019-05-17T05:56:22.029Z,8.28
2019-05-17T05:57:21.895Z,8.30
2019-05-17T05:58:23.573Z,8.27
2019-05-17T05:59:22.478Z,8.28
2019-05-17T06:00:22.131Z,8.28
2019-05-17T06:01:21.942Z,8.28
2019-05-17T06:02:21.740Z,8.37
2019-05-17T06:03:22.442Z,8.28
2019-05-17T06:04:22.302Z,8.45
2019-05-17T06:05:21.908Z,8.34
2019-05-17T06:06:21.547Z,8.42
2019-05-17T06:07:21.639Z,8.44
2019-05-17T06:08:22.524Z,8.41
2019-05-17T06:09:22.293Z,8.37
2019-05-17T06:10:21.846Z,8.36
2019-05-17T06:11:21.591Z,8.37
2019-05-17T06:12:24.706Z,8.38
2019-05-17T06:13:21.838Z,8.44
2019-05-17T06:14:21.613Z,8.42
2019-05-17T06:15:21.950Z,8.46
2019-05-17T06:16:22.546Z,8.46
2019-05-17T06:17:21.644Z,8.56
2019-05-17T06:18:22.499Z,8.56
2019-05-17T06:19:22.234Z,8.56
2019-05-17T06:20:22.338Z,8.58
2019-05-17T06:21:22.450Z,8.56
2019-05-17T06:22:22.239Z,8.55
2019-05-17T06:23:20.247Z,8.63
2019-05-17T06:24:22.409Z,8.60
2019-05-17T06:25:23.385Z,8.63
2019-05-17T06:26:23.479Z,8.61
2019-05-17T06:27:21.501Z,8.74
2019-05-17T06:28:22.166Z,8.61
2019-05-17T06:29:22.155Z,8.67
2019-05-17T06:30:21.997Z,8.74
2019-05-17T06:31:20.138Z,8.78
2019-05-17T06:32:22.768Z,8.78
2019-05-17T06:33:28.099Z,8.71
2019-05-17T06:34:22.300Z,8.70
2019-05-17T06:35:21.744Z,8.71
2019-05-17T06:36:21.716Z,8.73
2019-05-17T06:37:22.209Z,8.79
2019-05-17T06:38:22.258Z,8.85
2019-05-17T06:39:22.269Z,8.85
2019-05-17T06:40:21.675Z,8.88
2019-05-17T06:41:21.545Z,8.74
2019-05-17T06:42:21.667Z,8.73
2019-05-17T06:43:21.474Z,8.74
2019-05-17T06:44:21.614Z,8.67
2019-05-17T06:45:22.075Z,8.63
2019-05-17T06:46:21.968Z,8.71
2019-05-17T06:47:22.391Z,8.73
2019-05-17T06:48:22.317Z,8.78
2019-05-17T06:49:22.264Z,8.87
2019-05-17T06:50:19.944Z,8.73
2019-05-17T06:51:21.959Z,8.87
2019-05-17T06:52:22.502Z,8.94
2019-05-17T06:53:21.863Z,8.91
2019-05-17T06:54:21.615Z,9.03
2019-05-17T06:55:19.890Z,9.06
2019-05-17T06:56:19.901Z,8.97
2019-05-17T06:57:19.863Z,9.00
2019-05-17T06:58:22.101Z,9.00
2019-05-17T06:59:19.842Z,8.99
2019-05-17T07:00:23.784Z,9.03
2019-05-17T07:01:19.832Z,8.99
2019-05-17T07:02:19.857Z,9.00
2019-05-17T07:03:19.943Z,9.03
2019-05-17T07:04:19.810Z,9.00
2019-05-17T07:05:20.115Z,9.03
2019-05-17T07:06:21.487Z,8.99
2019-05-17T07:07:20.734Z,9.06
2019-05-17T07:08:20.175Z,9.25
2019-05-17T07:09:19.747Z,9.23
2019-05-17T07:10:19.770Z,9.26
2019-05-17T07:11:21.030Z,9.28
2019-05-17T07:12:20.337Z,9.23
2019-05-17T07:13:19.917Z,9.28
2019-05-17T07:14:20.111Z,9.21
2019-05-17T07:15:19.888Z,9.37
2019-05-17T07:16:19.795Z,9.39
2019-05-17T07:17:19.803Z,9.46
2019-05-17T07:18:19.636Z,9.34
2019-05-17T07:19:19.799Z,9.32
2019-05-17T07:20:19.613Z,9.28
2019-05-17T07:21:20.568Z,9.28
2019-05-17T07:22:21.257Z,9.22
2019-05-17T07:23:19.806Z,9.23
2019-05-17T07:24:19.732Z,9.25
2019-05-17T07:25:19.868Z,9.31
2019-05-17T07:26:19.812Z,9.32
2019-05-17T07:27:19.534Z,9.29
2019-05-17T07:28:19.990Z,9.22
2019-05-17T07:29:19.509Z,9.22
2019-05-17T07:30:19.644Z,9.28
2019-05-17T07:31:22.651Z,9.25
2019-05-17T07:32:19.531Z,9.14
2019-05-17T07:33:19.943Z,9.22
2019-05-17T07:34:19.985Z,9.22
2019-05-17T07:35:19.850Z,9.19
2019-05-17T07:36:19.752Z,9.19
2019-05-17T07:37:19.637Z,9.22
2019-05-17T07:38:19.909Z,9.21
2019-05-17T07:39:20.477Z,9.18
2019-05-17T07:40:19.823Z,9.23
2019-05-17T07:41:20.400Z,9.16
2019-05-17T07:42:19.610Z,9.08
2019-05-17T07:43:20.750Z,9.11
2019-05-17T07:44:20.522Z,9.04
2019-05-17T07:45:20.319Z,8.99
2019-05-17T07:46:20.660Z,9.03
2019-05-17T07:47:20.331Z,8.94
2019-05-17T07:48:19.958Z,8.91
2019-05-17T07:49:20.017Z,8.92
2019-05-17T07:50:20.041Z,8.92
2019-05-17T07:51:19.581Z,8.89
2019-05-17T07:52:20.636Z,8.79
2019-05-17T07:53:20.148Z,8.79
2019-05-17T07:54:19.736Z,8.76
2019-05-17T07:55:22.851Z,8.76
2019-05-17T07:56:20.021Z,8.74
2019-05-17T07:57:20.710Z,8.79
2019-05-17T07:58:21.466Z,8.73
2019-05-17T07:59:20.003Z,8.71
2019-05-17T08:00:20.141Z,8.84
2019-05-17T08:01:20.415Z,8.87
2019-05-17T08:02:19.856Z,8.76
2019-05-17T08:03:20.969Z,8.74
2019-05-17T08:04:20.479Z,8.79
2019-05-17T08:05:21.180Z,8.85
2019-05-17T08:06:19.855Z,8.84
2019-05-17T08:07:19.661Z,8.82
2019-05-17T08:08:20.805Z,8.94
2019-05-17T08:09:20.471Z,8.92
2019-05-17T08:10:20.424Z,8.91
2019-05-17T08:11:19.685Z,9.00
2019-05-17T08:12:19.976Z,8.99
2019-05-17T08:13:27.291Z,8.99
2019-05-17T08:14:29.392Z,9.06
2019-05-17T08:15:20.011Z,9.16
2019-05-17T08:16:19.619Z,9.19
2019-05-17T08:17:19.842Z,9.23
2019-05-17T08:18:20.401Z,9.26
2019-05-17T08:19:20.490Z,9.28
2019-05-17T08:20:20.380Z,9.22
2019-05-17T08:21:19.851Z,9.39
2019-05-17T08:22:20.152Z,9.37
2019-05-17T08:23:20.179Z,9.41
2019-05-17T08:24:19.651Z,9.48
2019-05-17T08:25:20.021Z,9.54
2019-05-17T08:26:20.071Z,9.56
2019-05-17T08:27:20.092Z,9.55
2019-05-17T08:28:21.379Z,9.61
2019-05-17T08:29:20.354Z,9.65
2019-05-17T08:30:20.613Z,9.64
2019-05-17T08:31:20.182Z,9.61
2019-05-17T08:32:20.789Z,9.69
2019-05-17T08:33:19.493Z,9.56
2019-05-17T08:34:19.747Z,9.55
2019-05-17T08:35:19.816Z,9.55
2019-05-17T08:36:20.108Z,9.61
2019-05-17T08:37:20.415Z,9.56
2019-05-17T08:38:19.802Z,9.59
2019-05-17T08:39:19.832Z,9.64
2019-05-17T08:40:20.035Z,9.62
2019-05-17T08:41:20.783Z,9.61
2019-05-17T08:42:20.475Z,9.62
2019-05-17T08:43:21.091Z,9.61
2019-05-17T08:44:19.227Z,9.61
2019-05-17T08:45:20.584Z,9.68
2019-05-17T08:46:19.886Z,9.47
2019-05-17T08:47:20.884Z,9.56
2019-05-17T08:48:20.662Z,9.39
2019-05-17T08:49:20.239Z,9.58
2019-05-17T08:50:20.022Z,9.61
2019-05-17T08:51:19.668Z,9.73
2019-05-17T08:52:20.007Z,9.83
2019-05-17T08:53:19.920Z,9.84
2019-05-17T08:54:19.579Z,9.87
2019-05-17T08:55:20.431Z,9.89
2019-05-17T08:56:20.511Z,10.02
2019-05-17T08:57:20.488Z,10.01
2019-05-17T08:58:21.447Z,9.98
2019-05-17T08:59:20.233Z,10.19
2019-05-17T09:00:20.745Z,10.25
2019-05-17T09:01:19.595Z,10.23
2019-05-17T09:02:19.899Z,10.25
2019-05-17T09:03:19.563Z,10.28
2019-05-17T09:04:20.130Z,10.30
2019-05-17T09:05:21.247Z,10.42
2019-05-17T09:06:19.912Z,10.74
2019-05-17T09:07:20.385Z,10.57
2019-05-17T09:08:20.504Z,10.68
2019-05-17T09:09:20.435Z,10.69
2019-05-17T09:10:20.585Z,10.63
2019-05-17T09:11:19.683Z,10.68
2019-05-17T09:12:20.470Z,10.76
2019-05-17T09:13:19.596Z,10.79
2019-05-17T09:14:18.325Z,10.69
2019-05-17T09:15:20.394Z,10.86
2019-05-17T09:16:19.656Z,10.81
2019-05-17T09:17:19.419Z,10.79
2019-05-17T09:18:20.422Z,10.71
2019-05-17T09:19:19.448Z,10.79
2019-05-17T09:20:20.263Z,10.75
2019-05-17T09:21:18.271Z,10.82
2019-05-17T09:22:19.767Z,10.97
2019-05-17T09:23:19.679Z,10.97
2019-05-17T09:24:19.494Z,10.81
2019-05-17T09:25:21.423Z,10.87
2019-05-17T09:26:20.020Z,11.08
2019-05-17T09:27:19.750Z,11.15
2019-05-17T09:28:20.302Z,11.40
2019-05-17T09:29:20.101Z,11.55
2019-05-17T09:30:20.308Z,11.68
2019-05-17T09:31:20.236Z,11.91
2019-05-17T09:32:20.123Z,11.91
2019-05-17T09:33:19.214Z,11.86
2019-05-17T09:34:20.184Z,11.68
2019-05-17T09:35:20.555Z,11.99
2019-05-17T09:36:20.306Z,12.27
2019-05-17T09:37:19.858Z,12.40
2019-05-17T09:38:20.152Z,12.64
2019-05-17T09:39:19.974Z,12.57
2019-05-17T09:40:20.008Z,12.24
2019-05-17T09:41:20.023Z,12.40
2019-05-17T09:42:20.752Z,12.40
2019-05-17T09:43:20.299Z,12.29
2019-05-17T09:44:20.545Z,12.28
2019-05-17T09:45:20.223Z,12.15
2019-05-17T09:46:19.679Z,12.00
2019-05-17T09:47:20.455Z,12.00
2019-05-17T09:48:19.638Z,11.69
2019-05-17T09:49:19.258Z,11.72
2019-05-17T09:50:19.986Z,11.75
2019-05-17T09:51:19.639Z,11.75
2019-05-17T09:52:19.933Z,11.63
2019-05-17T09:53:20.076Z,11.60
2019-05-17T09:54:19.465Z,11.52
2019-05-17T09:55:19.618Z,11.66
2019-05-17T09:56:17.836Z,11.66
2019-05-17T09:57:20.273Z,11.87
2019-05-17T09:58:21.366Z,11.88
2019-05-17T09:59:17.823Z,11.95
2019-05-17T10:00:20.619Z,11.90
2019-05-17T10:01:19.627Z,11.94
2019-05-17T10:02:20.170Z,11.83
2019-05-17T10:03:23.308Z,11.45
2019-05-17T10:04:19.851Z,11.52
2019-05-17T10:05:19.981Z,11.63
2019-05-17T10:06:20.005Z,11.63
2019-05-17T10:07:17.720Z,11.57
2019-05-17T10:08:17.724Z,11.55
2019-05-17T10:09:19.570Z,11.45
2019-05-17T10:10:20.074Z,11.50
2019-05-17T10:11:20.077Z,11.47
2019-05-17T10:12:20.100Z,11.57
2019-05-17T10:13:20.090Z,11.33
2019-05-17T10:14:25.816Z,11.33
2019-05-17T10:15:20.731Z,11.27
2019-05-17T10:16:20.033Z,11.32
2019-05-17T10:17:17.605Z,11.44
2019-05-17T10:18:19.565Z,11.69
2019-05-17T10:19:20.828Z,11.70
2019-05-17T10:20:19.985Z,11.95
2019-05-17T10:21:19.719Z,12.03
2019-05-17T10:22:20.014Z,11.83
2019-05-17T10:23:19.663Z,11.66
2019-05-17T10:24:19.921Z,11.72
2019-05-17T10:25:19.959Z,11.68
2019-05-17T10:26:19.541Z,11.70
2019-05-17T10:27:19.666Z,11.72
2019-05-17T10:28:20.534Z,11.78
2019-05-17T10:29:17.463Z,11.63
2019-05-17T10:30:17.455Z,11.72
2019-05-17T10:31:19.584Z,11.73
2019-05-17T10:32:20.301Z,11.91
2019-05-17T10:33:17.435Z,12.12
2019-05-17T10:34:20.202Z,12.31
2019-05-17T10:35:17.396Z,12.43
2019-05-17T10:36:20.013Z,12.32
2019-05-17T10:37:20.147Z,12.35
2019-05-17T10:38:19.336Z,12.54
2019-05-17T10:39:19.318Z,12.78
2019-05-17T10:40:17.340Z,12.97
2019-05-17T10:41:19.704Z,12.83
2019-05-17T10:42:17.321Z,12.90
2019-05-17T10:43:17.306Z,12.94
2019-05-17T10:44:17.294Z,13.20
2019-05-17T10:45:19.698Z,13.31
2019-05-17T10:46:17.275Z,13.37
2019-05-17T10:47:19.425Z,13.44
2019-05-17T10:48:17.265Z,13.33
2019-05-17T10:49:17.243Z,13.22
2019-05-17T10:50:17.228Z,13.33
2019-05-17T10:51:17.356Z,13.04
2019-05-17T10:52:17.206Z,12.94
2019-05-17T10:53:17.192Z,12.90
2019-05-17T10:54:17.181Z,12.83
2019-05-17T10:55:17.172Z,12.90
2019-05-17T10:56:19.440Z,12.97
2019-05-17T10:57:19.314Z,12.95
2019-05-17T10:58:17.139Z,12.76
2019-05-17T10:59:17.131Z,12.80
2019-05-17T11:00:19.569Z,12.83
2019-05-17T11:01:17.108Z,12.83
2019-05-17T11:02:19.484Z,12.67
2019-05-17T11:03:17.106Z,12.67
2019-05-17T11:04:19.638Z,12.54
2019-05-17T11:05:17.056Z,12.45
2019-05-17T11:06:19.610Z,12.47
2019-05-17T11:07:19.748Z,12.32
2019-05-17T11:08:19.570Z,12.53
2019-05-17T11:09:20.168Z,12.62
2019-05-17T11:10:19.289Z,12.70
2019-05-17T11:11:19.822Z,12.76
2019-05-17T11:12:16.979Z,12.80
2019-05-17T11:13:16.966Z,12.78
2019-05-17T11:14:16.955Z,12.68
2019-05-17T11:15:16.974Z,12.58
2019-05-17T11:16:16.933Z,12.42
2019-05-17T11:17:16.922Z,12.40
2019-05-17T11:18:16.911Z,12.55
2019-05-17T11:19:16.901Z,12.54
2019-05-17T11:20:16.887Z,12.55
2019-05-17T11:21:16.893Z,12.60
2019-05-17T11:22:16.867Z,12.70
2019-05-17T11:23:16.854Z,12.46
2019-05-17T11:24:16.860Z,12.46
2019-05-17T11:25:16.835Z,12.46
2019-05-17T11:26:16.818Z,12.60
2019-05-17T11:27:16.827Z,12.65
2019-05-17T11:28:16.796Z,12.75
2019-05-17T11:29:16.788Z,12.79
2019-05-17T11:30:16.775Z,12.79
2019-05-17T11:31:16.762Z,13.12
2019-05-17T11:32:16.750Z,13.11
2019-05-17T11:33:16.754Z,13.13
2019-05-17T11:34:16.734Z,13.11
2019-05-17T11:35:16.717Z,13.00
2019-05-17T11:36:16.728Z,12.86
2019-05-17T11:37:16.695Z,12.76
2019-05-17T11:38:16.699Z,12.85
2019-05-17T11:39:16.695Z,12.86
2019-05-17T11:40:16.664Z,12.98
2019-05-17T11:41:21.603Z,13.13
2019-05-17T11:42:17.642Z,13.15
2019-05-17T11:43:16.627Z,13.22
2019-05-17T11:44:16.617Z,13.19
2019-05-17T11:45:27.417Z,13.16
2019-05-17T11:46:17.622Z,13.25
2019-05-17T11:47:16.589Z,13.27
2019-05-17T11:48:16.600Z,13.28
2019-05-17T11:49:16.569Z,13.30
2019-05-17T11:50:16.552Z,13.33
2019-05-17T11:51:16.559Z,13.19
2019-05-17T11:52:16.536Z,13.22
2019-05-17T11:53:16.515Z,13.30
2019-05-17T11:54:16.502Z,13.28
2019-05-17T11:55:16.491Z,13.38
2019-05-17T11:56:16.487Z,13.37
2019-05-17T11:57:16.497Z,13.41
2019-05-17T11:58:16.459Z,13.42
2019-05-17T11:59:16.448Z,13.46
2019-05-17T12:00:16.441Z,13.52
2019-05-17T12:01:16.425Z,13.38
2019-05-17T12:02:16.414Z,13.37
2019-05-17T12:03:16.423Z,13.38
2019-05-17T12:04:16.391Z,13.38
2019-05-17T12:05:16.382Z,13.30
2019-05-17T12:06:16.367Z,13.28
2019-05-17T12:07:16.355Z,13.28
2019-05-17T12:08:16.348Z,13.22
2019-05-17T12:09:16.354Z,13.13
2019-05-17T12:10:16.330Z,13.16
2019-05-17T12:11:16.312Z,12.97
2019-05-17T12:12:16.301Z,12.85
2019-05-17T12:13:16.288Z,12.94
2019-05-17T12:14:16.275Z,12.94
2019-05-17T12:15:16.287Z,13.11
2019-05-17T12:16:16.255Z,13.19
2019-05-17T12:17:16.247Z,13.35
2019-05-17T12:18:16.232Z,13.38
2019-05-17T12:19:16.225Z,13.49
2019-05-17T12:20:16.217Z,13.62
2019-05-17T12:21:16.223Z,13.87
2019-05-17T12:22:16.188Z,13.99
2019-05-17T12:23:16.221Z,14.07
2019-05-17T12:24:16.166Z,14.29
2019-05-17T12:25:16.154Z,14.73
2019-05-17T12:26:16.142Z,15.07
2019-05-17T12:27:16.835Z,15.29
2019-05-17T12:28:16.121Z,15.44
2019-05-17T12:29:16.109Z,15.49
2019-05-17T12:30:16.104Z,15.51
2019-05-17T12:31:16.085Z,15.46
2019-05-17T12:32:17.113Z,15.28
2019-05-17T12:33:16.095Z,15.03
2019-05-17T12:34:16.057Z,15.27
2019-05-17T12:35:16.040Z,15.33
2019-05-17T12:36:16.031Z,15.27
2019-05-17T12:37:16.020Z,15.25
2019-05-17T12:38:16.012Z,15.09
2019-05-17T12:39:16.033Z,15.10
2019-05-17T12:40:15.993Z,15.37
2019-05-17T12:41:15.974Z,15.54
2019-05-17T12:42:15.963Z,15.61
2019-05-17T12:43:15.954Z,15.88
2019-05-17T12:44:15.949Z,15.68
2019-05-17T12:45:15.949Z,15.46
2019-05-17T12:46:15.919Z,15.22
2019-05-17T12:47:15.905Z,15.18
2019-05-17T12:48:15.909Z,15.10
2019-05-17T12:49:15.884Z,14.96
2019-05-17T12:50:15.872Z,14.92
2019-05-17T12:51:15.878Z,14.86
2019-05-17T12:52:15.854Z,14.78
2019-05-17T12:53:15.837Z,14.99
2019-05-17T12:54:15.830Z,14.99
2019-05-17T12:55:15.846Z,14.94
2019-05-17T12:56:15.840Z,15.10
2019-05-17T12:57:15.820Z,15.15
2019-05-17T12:58:15.793Z,15.19
2019-05-17T12:59:15.797Z,15.33
2019-05-17T13:00:15.770Z,15.54
2019-05-17T13:01:15.747Z,15.80
2019-05-17T13:02:15.736Z,15.58
2019-05-17T13:03:15.752Z,15.76
2019-05-17T13:04:15.720Z,15.70
2019-05-17T13:05:15.704Z,15.83
2019-05-17T13:06:15.742Z,15.83
2019-05-17T13:07:15.679Z,15.88
2019-05-17T13:08:15.667Z,15.72
2019-05-17T13:09:15.678Z,15.62
2019-05-17T13:10:15.650Z,15.57